Search for airport 
image banner adimage banner ad
image banner ad

SVKL - Planta Lagogas I

Located in Lago De Maracaibo, Venezuela

ICAO - SVKL, IATA -

Data provided by Airmate  

General information

Coordinates: N10°7'20" W71°32'39"
Elevation is 66 feet MSL.
 
Rated:
View ratings: [VIEW]


View others Airports in Merida

Operational data

Open for public use
Current time UTC:
Current local time:
Weather at : SVMC - Maracaibo / La Chinita Intl ( 53 km )
METAR: SVMC 070002Z AUTO 07004KT NCD 30/24 Q1010
TAF: TAF SVMC 062200Z 0700/0800 09009KT 9999 SCT100 TX35/0618Z TN25/0609Z BECMG 0700/0704 18005KT 8000 TSRA BKN030
View NOTAMs / SUP AIP / TFR affecting this airport [VIEW]
Communications frequencies: [VIEW]

Runways:

Airport contact information

Address: Lago De Maracaibo Venezuela

Satellite view of SVKL